sensor_id;sensor_type;location;lat;lon;timestamp;pressure;altitude;pressure_sealevel;temperature;humidity
48517;BME280;34310;51.904;4.256;2023-03-14T00:00:16;98930.03;;;17.99;54.84
48517;BME280;34310;51.904;4.256;2023-03-14T00:02:44;98923.94;;;17.99;54.85
48517;BME280;34310;51.904;4.256;2023-03-14T00:05:12;98914.34;;;17.98;54.80
48517;BME280;34310;51.904;4.256;2023-03-14T00:07:40;98917.81;;;17.97;54.81
48517;BME280;34310;51.904;4.256;2023-03-14T00:10:13;98925.66;;;17.97;54.89
48517;BME280;34310;51.904;4.256;2023-03-14T00:12:41;98924.78;;;17.96;54.80
48517;BME280;34310;51.904;4.256;2023-03-14T00:15:10;98928.25;;;17.95;54.88
48517;BME280;34310;51.904;4.256;2023-03-14T00:17:38;98937.81;;;17.94;54.89
48517;BME280;34310;51.904;4.256;2023-03-14T00:20:07;98928.22;;;17.93;54.72
48517;BME280;34310;51.904;4.256;2023-03-14T00:22:39;98927.31;;;17.91;54.88
48517;BME280;34310;51.904;4.256;2023-03-14T00:25:09;98922.09;;;17.91;54.82
48517;BME280;34310;51.904;4.256;2023-03-14T00:27:37;98931.66;;;17.91;54.93
48517;BME280;34310;51.904;4.256;2023-03-14T00:30:06;98915.97;;;17.89;54.71
48517;BME280;34310;51.904;4.256;2023-03-14T00:32:35;98924.66;;;17.88;54.88
48517;BME280;34310;51.904;4.256;2023-03-14T00:35:03;98915.97;;;17.88;54.88
48517;BME280;34310;51.904;4.256;2023-03-14T00:37:30;98916.84;;;17.88;54.80
48517;BME280;34310;51.904;4.256;2023-03-14T00:39:58;98911.59;;;17.87;54.81
48517;BME280;34310;51.904;4.256;2023-03-14T00:42:25;98922.03;;;17.85;54.85
48517;BME280;34310;51.904;4.256;2023-03-14T00:44:53;98925.50;;;17.86;54.85
48517;BME280;34310;51.904;4.256;2023-03-14T00:47:20;98916.81;;;17.85;54.84
48517;BME280;34310;51.904;4.256;2023-03-14T00:49:47;98919.41;;;17.84;54.89
48517;BME280;34310;51.904;4.256;2023-03-14T00:52:14;98929.84;;;17.84;54.77
48517;BME280;34310;51.904;4.256;2023-03-14T00:54:42;98922.88;;;17.83;54.78
48517;BME280;34310;51.904;4.256;2023-03-14T00:57:09;98934.19;;;17.82;54.93
48517;BME280;34310;51.904;4.256;2023-03-14T00:59:36;98933.31;;;17.81;54.99
48517;BME280;34310;51.904;4.256;2023-03-14T01:02:04;98930.69;;;17.81;54.84
48517;BME280;34310;51.904;4.256;2023-03-14T01:04:31;98944.59;;;17.80;55.00
48517;BME280;34310;51.904;4.256;2023-03-14T01:06:58;98947.22;;;17.80;54.75
48517;BME280;34310;51.904;4.256;2023-03-14T01:09:26;98942.84;;;17.79;55.05
48517;BME280;34310;51.904;4.256;2023-03-14T01:11:53;98930.69;;;17.80;54.99
48517;BME280;34310;51.904;4.256;2023-03-14T01:14:20;98920.19;;;17.77;54.99
48517;BME280;34310;51.904;4.256;2023-03-14T01:16:47;98908.91;;;17.78;54.97
48517;BME280;34310;51.904;4.256;2023-03-14T01:19:15;98901.06;;;17.76;54.93
48517;BME280;34310;51.904;4.256;2023-03-14T01:21:42;98895.84;;;17.76;54.85
48517;BME280;34310;51.904;4.256;2023-03-14T01:24:11;98907.13;;;17.75;54.90
48517;BME280;34310;51.904;4.256;2023-03-14T01:26:38;98910.59;;;17.74;55.04
48517;BME280;34310;51.904;4.256;2023-03-14T01:29:06;98914.06;;;17.73;54.97
48517;BME280;34310;51.904;4.256;2023-03-14T01:31:33;98914.06;;;17.73;55.00
48517;BME280;34310;51.904;4.256;2023-03-14T01:34:00;98918.41;;;17.73;55.09
48517;BME280;34310;51.904;4.256;2023-03-14T01:36:28;98923.63;;;17.71;54.94
48517;BME280;34310;51.904;4.256;2023-03-14T01:38:57;98913.19;;;17.71;54.95
48517;BME280;34310;51.904;4.256;2023-03-14T01:41:26;98916.66;;;17.70;55.07
48517;BME280;34310;51.904;4.256;2023-03-14T01:43:54;98921.84;;;17.69;54.98
48517;BME280;34310;51.904;4.256;2023-03-14T01:54:34;98917.44;;;17.66;54.99
48517;BME280;34310;51.904;4.256;2023-03-14T01:59:42;98911.34;;;17.64;55.11
48517;BME280;34310;51.904;4.256;2023-03-14T02:02:12;98906.94;;;17.63;55.15
48517;BME280;34310;51.904;4.256;2023-03-14T02:04:40;98887.81;;;17.62;55.09
48517;BME280;34310;51.904;4.256;2023-03-14T02:07:48;98905.19;;;17.62;55.00
48517;BME280;34310;51.904;4.256;2023-03-14T02:10:18;98903.44;;;17.61;55.19
48517;BME280;34310;51.904;4.256;2023-03-14T02:12:48;98891.25;;;17.60;55.08
48517;BME280;34310;51.904;4.256;2023-03-14T02:15:16;98893.88;;;17.60;55.04
48517;BME280;34310;51.904;4.256;2023-03-14T02:17:44;98882.50;;;17.56;55.23
48517;BME280;34310;51.904;4.256;2023-03-14T02:23:15;98880.81;;;17.58;55.27
48517;BME280;34310;51.904;4.256;2023-03-14T02:28:11;98875.56;;;17.55;55.16
48517;BME280;34310;51.904;4.256;2023-03-14T02:30:40;98876.44;;;17.56;55.09
48517;BME280;34310;51.904;4.256;2023-03-14T02:33:10;98869.44;;;17.55;55.20
48517;BME280;34310;51.904;4.256;2023-03-14T02:35:55;98872.03;;;17.53;55.10
48517;BME280;34310;51.904;4.256;2023-03-14T02:38:55;98872.91;;;17.52;55.25
48517;BME280;34310;51.904;4.256;2023-03-14T02:41:25;98870.28;;;17.52;55.18
48517;BME280;34310;51.904;4.256;2023-03-14T02:43:52;98865.06;;;17.52;55.10
48517;BME280;34310;51.904;4.256;2023-03-14T02:46:21;98865.06;;;17.51;55.26
48517;BME280;34310;51.904;4.256;2023-03-14T02:48:58;98855.50;;;17.50;55.03
48517;BME280;34310;51.904;4.256;2023-03-14T02:51:29;98860.72;;;17.50;55.11
48517;BME280;34310;51.904;4.256;2023-03-14T02:53:57;98856.34;;;17.49;55.26
48517;BME280;34310;51.904;4.256;2023-03-14T02:56:24;98848.50;;;17.47;55.16
48517;BME280;34310;51.904;4.256;2023-03-14T02:58:51;98849.41;;;17.49;55.18
48517;BME280;34310;51.904;4.256;2023-03-14T03:01:19;98854.59;;;17.48;55.20
48517;BME280;34310;51.904;4.256;2023-03-14T03:03:46;98847.63;;;17.45;55.16
48517;BME280;34310;51.904;4.256;2023-03-14T03:06:14;98849.38;;;17.46;55.13
48517;BME280;34310;51.904;4.256;2023-03-14T03:08:42;98845.88;;;17.46;55.17
48517;BME280;34310;51.904;4.256;2023-03-14T03:11:09;98846.75;;;17.45;55.19
48517;BME280;34310;51.904;4.256;2023-03-14T03:13:36;98854.56;;;17.45;55.13
48517;BME280;34310;51.904;4.256;2023-03-14T03:16:04;98847.59;;;17.44;55.11
48517;BME280;34310;51.904;4.256;2023-03-14T03:18:32;98860.63;;;17.44;55.31
48517;BME280;34310;51.904;4.256;2023-03-14T03:21:03;98846.72;;;17.42;55.19
48517;BME280;34310;51.904;4.256;2023-03-14T03:23:31;98847.59;;;17.42;55.31
48517;BME280;34310;51.904;4.256;2023-03-14T03:25:59;98844.09;;;17.42;55.41
48517;BME280;34310;51.904;4.256;2023-03-14T03:28:26;98844.97;;;17.41;55.21
48517;BME280;34310;51.904;4.256;2023-03-14T03:30:53;98842.34;;;17.41;55.31
48517;BME280;34310;51.904;4.256;2023-03-14T03:33:21;98844.94;;;17.39;55.38
48517;BME280;34310;51.904;4.256;2023-03-14T03:35:50;98843.22;;;17.40;55.37
48517;BME280;34310;51.904;4.256;2023-03-14T03:38:17;98836.25;;;17.39;55.17
48517;BME280;34310;51.904;4.256;2023-03-14T03:40:47;98838.84;;;17.37;55.40
48517;BME280;34310;51.904;4.256;2023-03-14T03:43:14;98836.25;;;17.39;55.38
48517;BME280;34310;51.904;4.256;2023-03-14T03:45:41;98851.88;;;17.37;55.37
48517;BME280;34310;51.904;4.256;2023-03-14T03:48:09;98844.03;;;17.37;55.42
48517;BME280;34310;51.904;4.256;2023-03-14T03:50:36;98836.22;;;17.36;55.38
48517;BME280;34310;51.904;4.256;2023-03-14T03:53:03;98849.25;;;17.36;55.27
48517;BME280;34310;51.904;4.256;2023-03-14T03:55:31;98845.75;;;17.35;55.42
48517;BME280;34310;51.904;4.256;2023-03-14T03:57:58;98855.28;;;17.33;55.44
48517;BME280;34310;51.904;4.256;2023-03-14T04:00:25;98849.19;;;17.32;55.24
48517;BME280;34310;51.904;4.256;2023-03-14T04:02:53;98863.09;;;17.33;55.40
48517;BME280;34310;51.904;4.256;2023-03-14T04:05:20;98856.13;;;17.32;55.30
48517;BME280;34310;51.904;4.256;2023-03-14T04:07:47;98852.66;;;17.31;55.30
48517;BME280;34310;51.904;4.256;2023-03-14T04:10:15;98855.25;;;17.31;55.32
48517;BME280;34310;51.904;4.256;2023-03-14T04:12:42;98850.03;;;17.30;55.29
48517;BME280;34310;51.904;4.256;2023-03-14T04:15:10;98839.59;;;17.30;55.28
48517;BME280;34310;51.904;4.256;2023-03-14T04:17:37;98847.41;;;17.28;55.48
48517;BME280;34310;51.904;4.256;2023-03-14T04:20:05;98848.28;;;17.29;55.36
48517;BME280;34310;51.904;4.256;2023-03-14T04:22:38;98827.41;;;17.27;55.28
48517;BME280;34310;51.904;4.256;2023-03-14T04:25:06;98831.72;;;17.27;55.52
48517;BME280;34310;51.904;4.256;2023-03-14T04:27:34;98834.34;;;17.27;55.42
48517;BME280;34310;51.904;4.256;2023-03-14T04:30:01;98834.34;;;17.27;55.27
48517;BME280;34310;51.904;4.256;2023-03-14T04:32:28;98840.41;;;17.26;55.47
48517;BME280;34310;51.904;4.256;2023-03-14T04:34:55;98836.94;;;17.25;55.49
48517;BME280;34310;51.904;4.256;2023-03-14T04:37:23;98840.41;;;17.26;55.39
48517;BME280;34310;51.904;4.256;2023-03-14T04:39:50;98833.44;;;17.25;55.35
48517;BME280;34310;51.904;4.256;2023-03-14T04:42:17;98840.41;;;17.24;55.41
48517;BME280;34310;51.904;4.256;2023-03-14T04:44:44;98829.94;;;17.23;55.33
48517;BME280;34310;51.904;4.256;2023-03-14T04:47:13;98828.19;;;17.22;55.37
48517;BME280;34310;51.904;4.256;2023-03-14T04:49:41;98832.53;;;17.21;55.42
48517;BME280;34310;51.904;4.256;2023-03-14T04:52:08;98823.84;;;17.22;55.38
48517;BME280;34310;51.904;4.256;2023-03-14T04:54:35;98824.72;;;17.21;55.38
48517;BME280;34310;51.904;4.256;2023-03-14T04:57:03;98826.44;;;17.21;55.42
48517;BME280;34310;51.904;4.256;2023-03-14T04:59:30;98821.22;;;17.19;55.54
48517;BME280;34310;51.904;4.256;2023-03-14T05:01:57;98830.78;;;17.19;55.40
48517;BME280;34310;51.904;4.256;2023-03-14T05:04:25;98837.75;;;17.20;55.45
48517;BME280;34310;51.904;4.256;2023-03-14T05:06:52;98838.59;;;17.17;55.57
48517;BME280;34310;51.904;4.256;2023-03-14T05:09:20;98842.06;;;17.18;55.56
48517;BME280;34310;51.904;4.256;2023-03-14T05:11:47;98847.28;;;17.18;55.49
48517;BME280;34310;51.904;4.256;2023-03-14T05:14:14;98850.75;;;17.17;55.51
48517;BME280;34310;51.904;4.256;2023-03-14T05:16:41;98846.38;;;17.16;55.67
48517;BME280;34310;51.904;4.256;2023-03-14T05:19:09;98870.72;;;17.15;55.48
48517;BME280;34310;51.904;4.256;2023-03-14T05:21:37;98902.03;;;17.16;55.46
48517;BME280;34310;51.904;4.256;2023-03-14T05:24:04;98915.91;;;17.15;55.48
48517;BME280;34310;51.904;4.256;2023-03-14T05:26:32;98913.28;;;17.14;55.58
48517;BME280;34310;51.904;4.256;2023-03-14T05:28:59;98934.16;;;17.14;55.52
48517;BME280;34310;51.904;4.256;2023-03-14T05:31:27;98916.75;;;17.13;55.54
48517;BME280;34310;51.904;4.256;2023-03-14T05:33:54;98928.06;;;17.13;55.46
48517;BME280;34310;51.904;4.256;2023-03-14T05:36:21;98933.25;;;17.12;55.66
48517;BME280;34310;51.904;4.256;2023-03-14T05:38:49;98948.91;;;17.12;55.61
48517;BME280;34310;51.904;4.256;2023-03-14T05:41:16;98955.84;;;17.11;55.68
48517;BME280;34310;51.904;4.256;2023-03-14T05:43:43;98955.81;;;17.10;55.63
48517;BME280;34310;51.904;4.256;2023-03-14T05:46:10;98954.06;;;17.09;55.52
48517;BME280;34310;51.904;4.256;2023-03-14T05:48:38;98962.78;;;17.09;55.53
48517;BME280;34310;51.904;4.256;2023-03-14T05:51:05;98974.06;;;17.08;55.60
48517;BME280;34310;51.904;4.256;2023-03-14T05:53:33;98981.00;;;17.08;55.50
48517;BME280;34310;51.904;4.256;2023-03-14T05:56:00;98990.56;;;17.07;55.62
48517;BME280;34310;51.904;4.256;2023-03-14T05:58:27;99001.84;;;17.06;55.71
48517;BME280;34310;51.904;4.256;2023-03-14T06:00:55;99002.66;;;17.05;55.60
48517;BME280;34310;51.904;4.256;2023-03-14T06:03:22;99002.66;;;17.05;55.63
48517;BME280;34310;51.904;4.256;2023-03-14T06:05:51;98998.31;;;17.06;55.56
48517;BME280;34310;51.904;4.256;2023-03-14T06:08:18;99007.00;;;17.04;55.74
48517;BME280;34310;51.904;4.256;2023-03-14T06:10:46;99011.34;;;17.04;55.76
48517;BME280;34310;51.904;4.256;2023-03-14T06:13:13;99027.84;;;17.03;55.80
48517;BME280;34310;51.904;4.256;2023-03-14T06:15:42;99035.66;;;17.03;55.81
48517;BME280;34310;51.904;4.256;2023-03-14T06:18:09;99039.13;;;17.02;55.48
48517;BME280;34310;51.904;4.256;2023-03-14T06:20:38;99038.25;;;17.01;55.66
48517;BME280;34310;51.904;4.256;2023-03-14T06:23:08;99051.28;;;17.01;55.79
48517;BME280;34310;51.904;4.256;2023-03-14T06:25:36;99052.13;;;17.00;55.79
48517;BME280;34310;51.904;4.256;2023-03-14T06:28:04;99066.91;;;17.00;55.65
48517;BME280;34310;51.904;4.256;2023-03-14T06:30:31;99065.16;;;16.99;55.82
48517;BME280;34310;51.904;4.256;2023-03-14T06:32:59;99070.34;;;16.99;55.64
48517;BME280;34310;51.904;4.256;2023-03-14T06:35:26;99084.25;;;16.98;55.73
48517;BME280;34310;51.904;4.256;2023-03-14T06:37:54;99097.28;;;16.98;55.80
48517;BME280;34310;51.904;4.256;2023-03-14T06:40:21;99109.44;;;16.97;55.67
48517;BME280;34310;51.904;4.256;2023-03-14T06:42:49;99112.03;;;16.96;55.85
48517;BME280;34310;51.904;4.256;2023-03-14T06:45:16;99126.78;;;16.95;55.80
48517;BME280;34310;51.904;4.256;2023-03-14T06:47:43;99127.66;;;16.96;55.87
48517;BME280;34310;51.904;4.256;2023-03-14T06:50:11;99139.78;;;16.94;55.88
48517;BME280;34310;51.904;4.256;2023-03-14T06:52:38;99145.00;;;16.94;55.74
48517;BME280;34310;51.904;4.256;2023-03-14T06:55:13;99146.72;;;16.93;55.90
48517;BME280;34310;51.904;4.256;2023-03-14T06:57:41;99146.72;;;16.92;55.72
48517;BME280;34310;51.904;4.256;2023-03-14T07:00:09;99157.13;;;16.92;55.84
48517;BME280;34310;51.904;4.256;2023-03-14T07:02:37;99161.47;;;16.91;55.86
48517;BME280;34310;51.904;4.256;2023-03-14T07:05:10;99182.31;;;16.91;55.76
48517;BME280;34310;51.904;4.256;2023-03-14T07:07:37;99186.66;;;16.91;55.72
48517;BME280;34310;51.904;4.256;2023-03-14T07:10:05;99203.16;;;16.90;55.79
48517;BME280;34310;51.904;4.256;2023-03-14T07:12:32;99208.38;;;16.90;55.87
48517;BME280;34310;51.904;4.256;2023-03-14T07:15:00;99206.59;;;16.87;55.86
48517;BME280;34310;51.904;4.256;2023-03-14T07:17:44;99222.22;;;16.87;55.96
48517;BME280;34310;51.904;4.256;2023-03-14T07:20:11;99224.84;;;16.87;56.02
48517;BME280;34310;51.904;4.256;2023-03-14T07:22:39;99230.03;;;16.87;55.87
48517;BME280;34310;51.904;4.256;2023-03-14T07:25:06;99237.84;;;16.86;55.95
48517;BME280;34310;51.904;4.256;2023-03-14T07:27:36;99248.25;;;16.86;55.88
48517;BME280;34310;51.904;4.256;2023-03-14T07:30:04;99264.75;;;16.85;55.82
48517;BME280;34310;51.904;4.256;2023-03-14T07:32:31;99276.91;;;16.84;55.93
48517;BME280;34310;51.904;4.256;2023-03-14T07:34:59;99291.66;;;16.84;55.99
48517;BME280;34310;51.904;4.256;2023-03-14T07:37:26;99302.97;;;16.84;56.06
48517;BME280;34310;51.904;4.256;2023-03-14T07:39:53;99312.50;;;16.84;55.86
48517;BME280;34310;51.904;4.256;2023-03-14T07:42:21;99326.44;;;16.84;56.09
48517;BME280;34310;51.904;4.256;2023-03-14T07:44:48;99329.88;;;16.83;55.94
48517;BME280;34310;51.904;4.256;2023-03-14T07:47:15;99339.41;;;16.81;55.94
48517;BME280;34310;51.904;4.256;2023-03-14T07:49:42;99348.94;;;16.81;56.01
48517;BME280;34310;51.904;4.256;2023-03-14T07:52:10;99358.50;;;16.80;56.11
48517;BME280;34310;51.904;4.256;2023-03-14T07:54:37;99370.66;;;16.80;55.97
48517;BME280;34310;51.904;4.256;2023-03-14T07:57:04;99382.84;;;16.81;55.94
48517;BME280;34310;51.904;4.256;2023-03-14T07:59:32;99393.25;;;16.81;55.97
48517;BME280;34310;51.904;4.256;2023-03-14T08:01:59;99401.06;;;16.81;55.96
48517;BME280;34310;51.904;4.256;2023-03-14T08:04:26;99421.00;;;16.79;55.83
48517;BME280;34310;51.904;4.256;2023-03-14T08:06:54;99434.88;;;16.78;56.12
48517;BME280;34310;51.904;4.256;2023-03-14T08:09:21;99434.88;;;16.78;56.22
48517;BME280;34310;51.904;4.256;2023-03-14T08:11:48;99457.50;;;16.79;56.23
48517;BME280;34310;51.904;4.256;2023-03-14T21:07:20;101155.84;;;16.02;57.93
48517;BME280;34310;51.904;4.256;2023-03-14T21:09:48;101166.34;;;16.04;57.79
48517;BME280;34310;51.904;4.256;2023-03-14T21:12:15;101163.00;;;16.06;57.61
48517;BME280;34310;51.904;4.256;2023-03-14T21:14:42;101176.28;;;16.11;57.47
48517;BME280;34310;51.904;4.256;2023-03-14T21:17:13;101192.94;;;16.15;57.35
48517;BME280;34310;51.904;4.256;2023-03-14T21:19:40;101202.72;;;16.19;57.05
48517;BME280;34310;51.904;4.256;2023-03-14T21:22:08;101213.34;;;16.22;56.96
48517;BME280;34310;51.904;4.256;2023-03-14T21:24:36;101222.22;;;16.25;56.88
48517;BME280;34310;51.904;4.256;2023-03-14T21:27:03;101233.69;;;16.29;56.78
48517;BME280;34310;51.904;4.256;2023-03-14T21:29:31;101235.66;;;16.33;56.55
48517;BME280;34310;51.904;4.256;2023-03-14T21:32:03;101240.94;;;16.34;56.50
48517;BME280;34310;51.904;4.256;2023-03-14T21:34:30;101235.81;;;16.36;56.50
48517;BME280;34310;51.904;4.256;2023-03-14T21:36:57;101254.22;;;16.39;56.45
48517;BME280;34310;51.904;4.256;2023-03-14T21:39:25;101247.28;;;16.39;56.23
48517;BME280;34310;51.904;4.256;2023-03-14T21:41:52;101251.75;;;16.42;56.20
48517;BME280;34310;51.904;4.256;2023-03-14T21:44:19;101251.84;;;16.43;56.05
48517;BME280;34310;51.904;4.256;2023-03-14T21:46:48;101252.75;;;16.44;56.20
48517;BME280;34310;51.904;4.256;2023-03-14T21:49:16;101249.31;;;16.45;56.08
48517;BME280;34310;51.904;4.256;2023-03-14T21:51:44;101251.91;;;16.45;55.83
48517;BME280;34310;51.904;4.256;2023-03-14T21:54:15;101259.94;;;16.48;55.93
48517;BME280;34310;51.904;4.256;2023-03-14T21:56:43;101258.22;;;16.49;55.85
48517;BME280;34310;51.904;4.256;2023-03-14T21:59:11;101267.75;;;16.48;55.72
48517;BME280;34310;51.904;4.256;2023-03-14T22:01:40;101272.16;;;16.49;55.80
48517;BME280;34310;51.904;4.256;2023-03-14T22:04:08;101271.34;;;16.50;55.65
48517;BME280;34310;51.904;4.256;2023-03-14T22:06:35;101274.75;;;16.49;55.73
48517;BME280;34310;51.904;4.256;2023-03-14T22:09:03;101276.56;;;16.50;55.77
48517;BME280;34310;51.904;4.256;2023-03-14T22:11:30;101282.56;;;16.49;55.75
48517;BME280;34310;51.904;4.256;2023-03-14T22:13:57;101279.06;;;16.49;55.60
48517;BME280;34310;51.904;4.256;2023-03-14T22:16:25;101279.97;;;16.49;55.71
48517;BME280;34310;51.904;4.256;2023-03-14T22:18:52;101278.25;;;16.50;55.72
48517;BME280;34310;51.904;4.256;2023-03-14T22:21:19;101286.09;;;16.50;55.60
48517;BME280;34310;51.904;4.256;2023-03-14T22:23:47;101280.78;;;16.48;55.50
48517;BME280;34310;51.904;4.256;2023-03-14T22:26:16;101272.97;;;16.48;55.54
48517;BME280;34310;51.904;4.256;2023-03-14T22:28:43;101267.75;;;16.48;55.41
48517;BME280;34310;51.904;4.256;2023-03-14T22:31:11;101265.16;;;16.48;55.54
48517;BME280;34310;51.904;4.256;2023-03-14T22:33:38;101266.81;;;16.48;55.49
48517;BME280;34310;51.904;4.256;2023-03-14T22:36:06;101265.94;;;16.47;55.52
48517;BME280;34310;51.904;4.256;2023-03-14T22:38:33;101254.59;;;16.47;55.38
48517;BME280;34310;51.904;4.256;2023-03-14T22:41:01;101259.00;;;16.48;55.41
48517;BME280;34310;51.904;4.256;2023-03-14T22:43:29;101259.75;;;16.45;55.34
48517;BME280;34310;51.904;4.256;2023-03-14T22:46:05;101264.94;;;16.45;55.32
48517;BME280;34310;51.904;4.256;2023-03-14T22:48:33;101264.94;;;16.45;55.38
48517;BME280;34310;51.904;4.256;2023-03-14T22:51:09;101261.38;;;16.43;55.41
48517;BME280;34310;51.904;4.256;2023-03-14T22:53:37;101258.75;;;16.43;55.29
48517;BME280;34310;51.904;4.256;2023-03-14T22:56:06;101262.28;;;16.43;55.31
48517;BME280;34310;51.904;4.256;2023-03-14T22:58:34;101269.19;;;16.43;55.26
48517;BME280;34310;51.904;4.256;2023-03-14T23:01:03;101260.41;;;16.41;55.33
48517;BME280;34310;51.904;4.256;2023-03-14T23:03:30;101256.91;;;16.40;55.22
48517;BME280;34310;51.904;4.256;2023-03-14T23:05:58;101250.78;;;16.40;55.34
48517;BME280;34310;51.904;4.256;2023-03-14T23:08:25;101248.09;;;16.38;55.41
48517;BME280;34310;51.904;4.256;2023-03-14T23:11:00;101259.41;;;16.39;55.38
48517;BME280;34310;51.904;4.256;2023-03-14T23:13:28;101256.72;;;16.37;55.37
48517;BME280;34310;51.904;4.256;2023-03-14T23:15:58;101246.22;;;16.36;55.38
48517;BME280;34310;51.904;4.256;2023-03-14T23:18:25;101241.84;;;16.35;55.39
48517;BME280;34310;51.904;4.256;2023-03-14T23:21:06;101238.31;;;16.34;55.32
48517;BME280;34310;51.904;4.256;2023-03-14T23:23:34;101232.22;;;16.34;55.39
48517;BME280;34310;51.904;4.256;2023-03-14T23:26:03;101253.88;;;16.33;55.33
48517;BME280;34310;51.904;4.256;2023-03-14T23:28:31;101266.03;;;16.32;55.34
48517;BME280;34310;51.904;4.256;2023-03-14T23:30:59;101268.53;;;16.31;55.24
48517;BME280;34310;51.904;4.256;2023-03-14T23:33:27;101277.16;;;16.30;55.36
48517;BME280;34310;51.904;4.256;2023-03-14T23:35:55;101277.97;;;16.29;55.30
48517;BME280;34310;51.904;4.256;2023-03-14T23:38:23;101270.16;;;16.29;55.38
48517;BME280;34310;51.904;4.256;2023-03-14T23:40:52;101281.50;;;16.29;55.37
48517;BME280;34310;51.904;4.256;2023-03-14T23:43:20;101282.22;;;16.27;55.20
48517;BME280;34310;51.904;4.256;2023-03-14T23:45:52;101256.09;;;16.25;55.42
48517;BME280;34310;51.904;4.256;2023-03-14T23:48:22;101265.59;;;16.25;55.43
48517;BME280;34310;51.904;4.256;2023-03-14T23:50:57;101248.19;;;16.24;55.27
48517;BME280;34310;51.904;4.256;2023-03-14T23:53:26;101251.59;;;16.23;55.32
48517;BME280;34310;51.904;4.256;2023-03-14T23:55:54;101256.81;;;16.23;55.40
48517;BME280;34310;51.904;4.256;2023-03-14T23:58:22;101259.34;;;16.21;55.23
